Wayne Bethel — WDH9869 — position and weather

sailwx.info

Track history (hours):
 
Tides and Currents Weather Stations Pressure Air Temp Water Temp Dewpoint Dewpoint Depression Visibility Wind Speed Wind Dir Waves Ship Positions

Wayne Bethel

Owner: Kirby Inland Marine LP, Houston, TX. More information available from US FCC via Universal Licensing System and Coast Guard Vessel Documentation Center.

Last reported at 2018-Jan-26 13:37 UTC. Time now 2018-Feb-18 06:47 UTC.
Position N 29°47' W 095°05'.
Warning: this ship's position is 22 days out of date.

Length 27 m.

Type: . MMSI: 367672380.

Date/timePositionNaut miles runAvg speedWind from/ knotsBaromVisibWave heightAir tempDewpointWater temp
2018-Jan-26 13:37N 29°47' W 095°05'0 1.0
2018-Jan-26 13:17N 29°47' W 095°04'2 4.9
2018-Jan-26 12:57N 29°46' W 095°05'1 0.7
2018-Jan-26 11:17N 29°46' W 095°07'1 0.1
2018-Jan-25 21:13N 29°46' W 095°06'1 0.9
2018-Jan-25 20:07N 29°46' W 095°04'1 0.4
2018-Jan-25 17:27N 29°46' W 095°06'0 0.1
2018-Jan-25 14:08N 29°46' W 095°05'0 0.0
2018-Jan-24 23:00N 29°45' W 095°06'0 0.1
2018-Jan-24 18:38N 29°46' W 095°05'0 0.2
2018-Jan-24 17:30N 29°46' W 095°05'1 0.2
2018-Jan-24 13:46N 29°45' W 095°06'1 0.1
2018-Jan-24 09:49N 29°46' W 095°05'1 0.3
2018-Jan-24 05:55N 29°47' W 095°05'1 0.8
2018-Jan-24 04:23N 29°46' W 095°05'1 0.2
2018-Jan-24 01:55N 29°46' W 095°05'1 0.5
2018-Jan-24 00:25N 29°46' W 095°06'3 2.7
2018-Jan-23 23:18N 29°44' W 095°09'2 0.1
2018-Jan-23 04:24N 29°45' W 095°11'3 5.2
2018-Jan-23 03:45N 29°44' W 095°07'1 4.4
2018-Jan-23 03:25N 29°45' W 095°06'0 0.0
2018-Jan-22 14:04N 29°46' W 095°06'0 0.1
2018-Jan-22 13:44N 29°45' W 095°06'0 0.0
2018-Jan-21 21:07N 29°45' W 095°06'0 2.9
2018-Jan-21 20:57N 29°46' W 095°05'0 0.7
2018-Jan-21 20:19N 29°45' W 095°06'0 0.0
2018-Jan-20 22:04N 29°45' W 095°06'0 0.0
2018-Jan-19 12:34N 29°46' W 095°05'0 2.9
2018-Jan-19 12:27N 29°46' W 095°06'0 0.0
2018-Jan-19 11:09N 29°46' W 095°06'0 0.0
2018-Jan-19 10:53N 29°46' W 095°06'0 0.0
2018-Jan-19 10:28N 29°46' W 095°06'0 0.0
2018-Jan-19 09:18N 29°46' W 095°06'0 0.0
2018-Jan-19 08:13N 29°46' W 095°06'0 0.0
2018-Jan-19 07:59N 29°46' W 095°06'0 0.0
2018-Jan-19 07:24N 29°46' W 095°06'0 0.0
2018-Jan-19 06:53N 29°46' W 095°06'0 0.0
2018-Jan-19 06:16N 29°46' W 095°06'0 0.0
2018-Jan-19 04:57N 29°46' W 095°06'0 0.0
2018-Jan-19 04:24N 29°46' W 095°06'0 0.0
2018-Jan-19 03:56N 29°46' W 095°06'0 0.0
2018-Jan-19 03:28N 29°46' W 095°06'0 0.0
2018-Jan-19 01:29N 29°46' W 095°06'0 0.1
2018-Jan-19 00:56N 29°46' W 095°06'0 0.0
2018-Jan-18 19:13N 29°46' W 095°06'0 0.1
2018-Jan-18 19:00N 29°46' W 095°06'0 0.0
2018-Jan-17 23:48N 29°46' W 095°05'  
Track history (hours):
 
Tides and Currents Weather Stations Pressure Air Temp Water Temp Dewpoint Dewpoint Depression Visibility Wind Speed Wind Dir Waves Ship Positions

Wayne Bethel

Owner: Kirby Inland Marine LP, Houston, TX. More information available from US FCC via Universal Licensing System and Coast Guard Vessel Documentation Center.

Last reported at 2018-Jan-26 13:37 UTC. Time now 2018-Feb-18 06:47 UTC.
Position N 29°47' W 095°05'.
Warning: this ship's position is 22 days out of date.

Length 27 m.

Type: . MMSI: 367672380.

Date/timePositionNaut miles runAvg speedWind from/ knotsBaromVisibWave heightAir tempDewpointWater temp
2018-Jan-26 13:37N 29°47' W 095°05'0 1.0
2018-Jan-26 13:17N 29°47' W 095°04'2 4.9
2018-Jan-26 12:57N 29°46' W 095°05'1 0.7
2018-Jan-26 11:17N 29°46' W 095°07'1 0.1
2018-Jan-25 21:13N 29°46' W 095°06'1 0.9
2018-Jan-25 20:07N 29°46' W 095°04'1 0.4
2018-Jan-25 17:27N 29°46' W 095°06'0 0.1
2018-Jan-25 14:08N 29°46' W 095°05'0 0.0
2018-Jan-24 23:00N 29°45' W 095°06'0 0.1
2018-Jan-24 18:38N 29°46' W 095°05'0 0.2
2018-Jan-24 17:30N 29°46' W 095°05'1 0.2
2018-Jan-24 13:46N 29°45' W 095°06'1 0.1
2018-Jan-24 09:49N 29°46' W 095°05'1 0.3
2018-Jan-24 05:55N 29°47' W 095°05'1 0.8
2018-Jan-24 04:23N 29°46' W 095°05'1 0.2
2018-Jan-24 01:55N 29°46' W 095°05'1 0.5
2018-Jan-24 00:25N 29°46' W 095°06'3 2.7
2018-Jan-23 23:18N 29°44' W 095°09'2 0.1
2018-Jan-23 04:24N 29°45' W 095°11'3 5.2
2018-Jan-23 03:45N 29°44' W 095°07'1 4.4
2018-Jan-23 03:25N 29°45' W 095°06'0 0.0
2018-Jan-22 14:04N 29°46' W 095°06'0 0.1
2018-Jan-22 13:44N 29°45' W 095°06'0 0.0
2018-Jan-21 21:07N 29°45' W 095°06'0 2.9
2018-Jan-21 20:57N 29°46' W 095°05'0 0.7
2018-Jan-21 20:19N 29°45' W 095°06'0 0.0
2018-Jan-20 22:04N 29°45' W 095°06'0 0.0
2018-Jan-19 12:34N 29°46' W 095°05'0 2.9
2018-Jan-19 12:27N 29°46' W 095°06'0 0.0
2018-Jan-19 11:09N 29°46' W 095°06'0 0.0
2018-Jan-19 10:53N 29°46' W 095°06'0 0.0
2018-Jan-19 10:28N 29°46' W 095°06'0 0.0
2018-Jan-19 09:18N 29°46' W 095°06'0 0.0
2018-Jan-19 08:13N 29°46' W 095°06'0 0.0
2018-Jan-19 07:59N 29°46' W 095°06'0 0.0
2018-Jan-19 07:24N 29°46' W 095°06'0 0.0
2018-Jan-19 06:53N 29°46' W 095°06'0 0.0
2018-Jan-19 06:16N 29°46' W 095°06'0 0.0
2018-Jan-19 04:57N 29°46' W 095°06'0 0.0
2018-Jan-19 04:24N 29°46' W 095°06'0 0.0
2018-Jan-19 03:56N 29°46' W 095°06'0 0.0
2018-Jan-19 03:28N 29°46' W 095°06'0 0.0
2018-Jan-19 01:29N 29°46' W 095°06'0 0.1
2018-Jan-19 00:56N 29°46' W 095°06'0 0.0
2018-Jan-18 19:13N 29°46' W 095°06'0 0.1
2018-Jan-18 19:00N 29°46' W 095°06'0 0.0
2018-Jan-17 23:48N 29°46' W 095°05'  

Dump ship's entire track history